Lubbock, TX

6:18 PM CDT on July 27, 2016 (GMT -0500)
APRSWXNET | | Change Station

Elev 3221 ft 33.58 °N, 101.88 °W | Updated 31 minutes ago

Mostly Cloudy
Mostly Cloudy
87 °F
Feels Like 88 °F
N
1
Wind Variable Wind from SE
Gusts 0.0 mph

Today
High -- | Low -- °F
--% Chance of Precip.
Yesterday
High -- | Low -- °F
Precip. -- in
Pressure 29.86 in
Visibility 10.0 miles
Clouds Few 9500 ft
Mostly Cloudy 12000 ft
Heat Index 88 °F
Dew Point 62 °F
Humidity 44%
Rainfall in
Snow Depth Not available.
6:56 AM 8:50 PM
Last Quarter, 38% visible
METAR KLBB 272253Z 34009KT 10SM FEW095 BKN120 31/14 A3002 RMK AO2 PK WND 35030/2203 SLP112 T03110144
Pressure 29.86 in
Visibility 10.0 miles
Clouds Few 9500 ft
Mostly Cloudy 12000 ft
Heat Index 88 °F
Dew Point 62 °F
Humidity 44%
Rainfall in
Snow Depth Not available.
6:56 AM 8:50 PM
Last Quarter, 38% visible
METAR KLBB 272253Z 34009KT 10SM FEW095 BKN120 31/14 A3002 RMK AO2 PK WND 35030/2203 SLP112 T03110144

10-Day Weather Forecast

Almanac

Astronomy

Jul. 27, 2016 Rise Set
Actual Time
Civil Twilight
Nautical Twilight
Astronomical Twilight
Moon
Length of Visible Light
Length of Day
Tomorrow will be .
, % of the Moon is Illuminated

Today's Extremes

State Highs State Lows

Community

WunderPhotos

Upload Photos

1,927,954 photos uploaded!

WunderBlog® & News

Nearby

Air Quality

  Air Quality AQ Index Pollutant
Not available.

Snow Depth

Station Depth Elevation

Earthquake Activity

City Distance Mag. Time & Date
Minimum magnitude displayed is 2.5.

Coastal Water Temperatures

Place Temperature

Stations

Nearby Weather Stations

Station Location Temp. Windchill Dew Point Humidity Wind Precip. Elev Updated Type
                   

Watches & Warnings

There are currently no watches in effect.